Meteo Giornale » Osservazioni meteo Austria » Salisburgo

ore: 07:50 - Osservazioni Meteo Salisburgo
Lat. 47° 48' N Lon. 13° 0' E Alt. 430 metri s.l.m.

molto_nuvoloso Europe/Vienna

16 °C

Molto Nuvoloso

Temp. 24 Ore

0 °C

24 °C

Nord

3.7 Km/h

Dew point 14 °C

Umidità 87 %

Visibilità  10 Km

Il sole sorge alle ore 05:08

Il sole tramonta alle ore 21:12

Data e Ora Cielo e Fenomeni T °C DP °C Um. % Pres. hPa Vis. km Vento km/h
Oggi h: 07:50 molto_nuvoloso Molto Nuvoloso 16 14 87 1020 10 N 3.7
Oggi h: 07:20 molto_nuvoloso Molto Nuvoloso 16 13 82 1020 10 N 9.3
Oggi h: 06:50 molto_nuvoloso Molto Nuvoloso 16 13 82 1020 10 N 9.3
Oggi h: 06:20 molto_nuvoloso Molto Nuvoloso 16 13 82 1020 10 N/NO 11.1
Oggi h: 05:50 coperto_pioggia Pioggia Debole 15 13 87 1020 10 N 3.7
Oggi h: 05:20 coperto_pioggia Pioggia Debole 16 13 82 1020 10 N/NO 9.3
Oggi h: 04:50 coperto_pioggia Pioggia Debole 16 13 82 1020 10 N/NO 9.3
Oggi h: 04:20 molto_nuvoloso Molto Nuvoloso 16 13 82 1020 10 N 9.3
Oggi h: 03:50 molto_nuvoloso Molto Nuvoloso 16 14 87 1019 10 N 9.3
Oggi h: 03:20 molto_nuvoloso Molto Nuvoloso 17 13 77 1019 10 N/NO 9.3
Oggi h: 02:50 coperto Coperto 17 14 82 1019 10 O/NO 11.1
Oggi h: 02:20 molto_nuvoloso Molto Nuvoloso 17 15 88 1019 10 N 5.5
Oggi h: 01:50 molto_nuvoloso Molto Nuvoloso 16 15 93 1019 10 N 3.7
Oggi h: 01:20 nuvoloso_temporali Temporale con Pioggia 17 16 93 1020 4 S/SO 11.1
Oggi h: 00:50 coperto_pioggia Pioggia Debole 0 0 41 0 10 N 3.7
Oggi h: 00:20 molto_nuvoloso Molto Nuvoloso 17 16 93 1019 10 N 5.5
Ieri h: 23:50 coperto Coperto 18 15 82 1019 10 N 7.4
Ieri h: 23:20 molto_nuvoloso Molto Nuvoloso 18 16 88 1019 10 O/NO 9.3
Ieri h: 22:50 nuvoloso_piovaschi Debole Rovescio di Pioggia 18 15 82 1018 10 O 7.4
Ieri h: 22:20 coperto_temporali Temporale 18 15 82 1019 10 N 5.5
Ieri h: 21:50 nuvoloso_temporali Temporale con Pioggia Debole 18 15 82 1018 10 NO 9.3
Ieri h: 21:20 coperto_temporali Temporale 19 14 72 1017 10 NO 24
Ieri h: 20:50 nuvoloso_piovaschi Debole Rovescio di Pioggia 21 17 77 1017 10 O/NO 18.5
Ieri h: 20:20 molto_nuvoloso Molto Nuvoloso 21 19 88 1016 10 O/SO 7.4
Ieri h: 19:50 nuvoloso Nuvoloso 22 18 78 1016 10 N 5.5
Ieri h: 19:20 nuvoloso Nuvoloso 22 18 78 1015 10 N 3.7
Ieri h: 18:50 nuvoloso Nuvoloso 22 18 78 1015 10 N 3.7
Ieri h: 18:20 nuvoloso Nuvoloso 22 19 83 1015 10 N 3.7
Ieri h: 17:50 nuvoloso Nuvoloso 20 18 88 1016 10 N 1.8
Ieri h: 17:20 nuvoloso Nuvoloso 19 17 88 1016 10 S 9.3
Ieri h: 16:20 nuvoloso_temporali Temporale con Pioggia Debole 23 16 64 1016 10 N 13
Ieri h: 15:50 molto_nuvoloso Molto Nuvoloso 24 17 64 1016 10 NO 14.8
Ieri h: 15:20 molto_nuvoloso Molto Nuvoloso 24 16 60 1016 10 N 7.4
Ieri h: 14:50 molto_nuvoloso Molto Nuvoloso 24 17 64 1016 10 N/NO 7.4
Ieri h: 14:20 molto_nuvoloso Molto Nuvoloso 23 16 64 1017 10 N/NO 13
Ieri h: 13:50 molto_nuvoloso Molto Nuvoloso 22 16 68 1017 10 N 11.1
Ieri h: 13:20 molto_nuvoloso Molto Nuvoloso 22 16 68 1017 10 NO 14.8
Ieri h: 12:50 nuvoloso Nuvoloso 22 16 68 1017 10 N/NO 9.3
Ieri h: 12:20 nuvoloso Nuvoloso 22 16 68 1017 10 NO 14.8
Ieri h: 11:50 nuvoloso Nuvoloso 21 16 73 1017 10 N/NO 14.8
Ieri h: 11:20 nuvoloso Nuvoloso 21 16 73 1017 10 N/NO 11.1
Ieri h: 10:50 nuvoloso Nuvoloso 21 16 73 1017 10 NO 13
Ieri h: 10:20 molto_nuvoloso Molto Nuvoloso 21 16 73 1017 10 N 9.3
Ieri h: 09:50 molto_nuvoloso Molto Nuvoloso 20 16 77 1017 10 N/NO 9.3
Ieri h: 09:20 molto_nuvoloso Molto Nuvoloso 20 16 77 1018 10 N/NO 9.3
Ieri h: 08:50 molto_nuvoloso Molto Nuvoloso 20 17 82 1018 10 N/NO 7.4